sensor_id;sensor_type;location;lat;lon;timestamp;pressure;altitude;pressure_sealevel;temperature;humidity
52719;BME280;38616;42.140;24.760;2023-11-19T00:00:18;99350.50;;;6.50;nan
52719;BME280;38616;42.140;24.760;2023-11-19T00:02:43;99339.69;;;6.50;nan
52719;BME280;38616;42.140;24.760;2023-11-19T00:05:10;99335.59;;;6.42;nan
52719;BME280;38616;42.140;24.760;2023-11-19T00:07:37;99342.75;;;6.59;nan
52719;BME280;38616;42.140;24.760;2023-11-19T00:10:13;99331.63;;;6.55;nan
52719;BME280;38616;42.140;24.760;2023-11-19T00:12:40;99339.94;;;6.43;nan
52719;BME280;38616;42.140;24.760;2023-11-19T00:15:06;99329.69;;;6.45;nan
52719;BME280;38616;42.140;24.760;2023-11-19T00:17:45;99337.63;;;6.62;nan
52719;BME280;38616;42.140;24.760;2023-11-19T00:20:15;99330.03;;;6.59;nan
52719;BME280;38616;42.140;24.760;2023-11-19T00:22:41;99334.34;;;6.55;nan
52719;BME280;38616;42.140;24.760;2023-11-19T00:25:08;99330.53;;;6.51;nan
52719;BME280;38616;42.140;24.760;2023-11-19T00:27:34;99332.59;;;6.39;nan
52719;BME280;38616;42.140;24.760;2023-11-19T00:29:59;99342.66;;;6.48;nan
52719;BME280;38616;42.140;24.760;2023-11-19T00:32:25;99364.19;;;6.38;nan
52719;BME280;38616;42.140;24.760;2023-11-19T00:34:50;99345.25;;;6.33;nan
52719;BME280;38616;42.140;24.760;2023-11-19T00:37:16;99362.84;;;6.41;nan
52719;BME280;38616;42.140;24.760;2023-11-19T00:39:42;99365.72;;;6.29;nan
52719;BME280;38616;42.140;24.760;2023-11-19T00:42:09;99366.00;;;6.32;nan
52719;BME280;38616;42.140;24.760;2023-11-19T00:44:35;99357.44;;;6.41;nan
52719;BME280;38616;42.140;24.760;2023-11-19T00:47:01;99380.06;;;6.34;nan
52719;BME280;38616;42.140;24.760;2023-11-19T00:49:26;99370.66;;;6.37;nan
52719;BME280;38616;42.140;24.760;2023-11-19T00:51:52;99383.53;;;6.30;nan
52719;BME280;38616;42.140;24.760;2023-11-19T00:54:18;99408.94;;;6.34;nan
52719;BME280;38616;42.140;24.760;2023-11-19T00:56:43;99363.34;;;6.38;nan
52719;BME280;38616;42.140;24.760;2023-11-19T00:59:10;99372.91;;;6.50;nan
52719;BME280;38616;42.140;24.760;2023-11-19T01:01:35;99372.31;;;6.43;nan
52719;BME280;38616;42.140;24.760;2023-11-19T01:04:01;99374.22;;;6.48;nan
52719;BME280;38616;42.140;24.760;2023-11-19T01:06:36;99378.59;;;6.54;nan
52719;BME280;38616;42.140;24.760;2023-11-19T01:09:03;99370.03;;;6.68;nan
52719;BME280;38616;42.140;24.760;2023-11-19T01:11:29;99367.41;;;6.78;nan
52719;BME280;38616;42.140;24.760;2023-11-19T01:13:54;99373.25;;;6.64;nan
52719;BME280;38616;42.140;24.760;2023-11-19T01:16:20;99384.63;;;6.67;nan
52719;BME280;38616;42.140;24.760;2023-11-19T01:18:49;99367.59;;;6.61;nan
52719;BME280;38616;42.140;24.760;2023-11-19T01:21:15;99371.47;;;6.43;nan
52719;BME280;38616;42.140;24.760;2023-11-19T01:23:41;99377.91;;;6.36;nan
52719;BME280;38616;42.140;24.760;2023-11-19T01:26:11;99387.34;;;6.34;nan
52719;BME280;38616;42.140;24.760;2023-11-19T01:28:38;99380.94;;;6.40;nan
52719;BME280;38616;42.140;24.760;2023-11-19T01:31:05;99367.84;;;6.59;nan
52719;BME280;38616;42.140;24.760;2023-11-19T01:33:30;99384.19;;;6.42;nan
52719;BME280;38616;42.140;24.760;2023-11-19T01:35:56;99387.34;;;6.34;nan
52719;BME280;38616;42.140;24.760;2023-11-19T01:38:24;99391.88;;;6.28;nan
52719;BME280;38616;42.140;24.760;2023-11-19T01:40:55;99397.03;;;6.30;nan
52719;BME280;38616;42.140;24.760;2023-11-19T01:43:37;99361.63;;;6.26;nan
52719;BME280;38616;42.140;24.760;2023-11-19T01:46:04;99372.00;;;6.40;nan
52719;BME280;38616;42.140;24.760;2023-11-19T01:48:35;99372.34;;;6.48;nan
52719;BME280;38616;42.140;24.760;2023-11-19T01:51:03;99375.53;;;6.40;nan
52719;BME280;38616;42.140;24.760;2023-11-19T01:53:29;99368.69;;;6.32;nan
52719;BME280;38616;42.140;24.760;2023-11-19T01:55:56;99374.56;;;6.24;nan
52719;BME280;38616;42.140;24.760;2023-11-19T01:58:22;99386.00;;;6.36;nan
52719;BME280;38616;42.140;24.760;2023-11-19T02:00:48;99373.16;;;6.49;nan
52719;BME280;38616;42.140;24.760;2023-11-19T02:03:14;99398.59;;;6.58;nan
52719;BME280;38616;42.140;24.760;2023-11-19T02:05:40;99396.72;;;6.59;nan
52719;BME280;38616;42.140;24.760;2023-11-19T02:08:06;99400.41;;;6.47;nan
52719;BME280;38616;42.140;24.760;2023-11-19T02:10:31;99407.00;;;6.62;nan
52719;BME280;38616;42.140;24.760;2023-11-19T02:12:58;99396.84;;;6.42;nan
52719;BME280;38616;42.140;24.760;2023-11-19T02:15:24;99364.50;;;6.47;nan
52719;BME280;38616;42.140;24.760;2023-11-19T02:17:50;99394.84;;;6.27;nan
52719;BME280;38616;42.140;24.760;2023-11-19T02:20:17;99389.72;;;6.30;nan
52719;BME280;38616;42.140;24.760;2023-11-19T02:22:45;99382.19;;;6.32;nan
52719;BME280;38616;42.140;24.760;2023-11-19T02:25:25;99397.88;;;6.35;nan
52719;BME280;38616;42.140;24.760;2023-11-19T02:28:02;99392.13;;;6.27;nan
52719;BME280;38616;42.140;24.760;2023-11-19T02:30:28;99403.16;;;6.25;nan
52719;BME280;38616;42.140;24.760;2023-11-19T02:32:58;99416.16;;;6.28;nan
52719;BME280;38616;42.140;24.760;2023-11-19T02:35:26;99420.13;;;6.20;nan
52719;BME280;38616;42.140;24.760;2023-11-19T02:37:52;99435.53;;;6.25;nan
52719;BME280;38616;42.140;24.760;2023-11-19T02:40:17;99458.97;;;6.19;nan
52719;BME280;38616;42.140;24.760;2023-11-19T02:42:43;99405.91;;;6.30;nan
52719;BME280;38616;42.140;24.760;2023-11-19T02:45:09;99401.63;;;6.34;nan
52719;BME280;38616;42.140;24.760;2023-11-19T02:47:42;99429.59;;;6.23;nan
52719;BME280;38616;42.140;24.760;2023-11-19T02:50:11;99414.53;;;6.27;nan
52719;BME280;38616;42.140;24.760;2023-11-19T02:52:46;99422.06;;;6.25;nan
52719;BME280;38616;42.140;24.760;2023-11-19T02:55:12;99422.53;;;6.17;nan
52719;BME280;38616;42.140;24.760;2023-11-19T02:57:38;99407.22;;;6.23;nan
52719;BME280;38616;42.140;24.760;2023-11-19T03:00:24;99417.81;;;6.34;nan
52719;BME280;38616;42.140;24.760;2023-11-19T03:02:56;99405.63;;;6.27;nan
52719;BME280;38616;42.140;24.760;2023-11-19T03:05:26;99405.72;;;6.37;nan
52719;BME280;38616;42.140;24.760;2023-11-19T03:07:52;99391.03;;;6.23;nan
52719;BME280;38616;42.140;24.760;2023-11-19T03:10:18;99412.66;;;6.28;nan
52719;BME280;38616;42.140;24.760;2023-11-19T03:12:44;99404.88;;;6.36;nan
52719;BME280;38616;42.140;24.760;2023-11-19T03:15:11;99391.41;;;6.36;nan
52719;BME280;38616;42.140;24.760;2023-11-19T03:17:40;99407.78;;;6.25;nan
52719;BME280;38616;42.140;24.760;2023-11-19T03:20:10;99391.88;;;6.28;nan
52719;BME280;38616;42.140;24.760;2023-11-19T03:22:39;99385.69;;;6.28;nan
52719;BME280;38616;42.140;24.760;2023-11-19T03:25:07;99389.63;;;6.20;nan
52719;BME280;38616;42.140;24.760;2023-11-19T03:27:34;99388.69;;;6.36;nan
52719;BME280;38616;42.140;24.760;2023-11-19T03:30:02;99396.94;;;6.52;nan
52719;BME280;38616;42.140;24.760;2023-11-19T03:32:30;99401.41;;;6.36;nan
52719;BME280;38616;42.140;24.760;2023-11-19T03:34:55;99396.56;;;6.38;nan
52719;BME280;38616;42.140;24.760;2023-11-19T03:37:21;99397.66;;;6.42;nan
52719;BME280;38616;42.140;24.760;2023-11-19T03:39:47;99386.06;;;6.42;nan
52719;BME280;38616;42.140;24.760;2023-11-19T03:42:12;99396.31;;;6.45;nan
52719;BME280;38616;42.140;24.760;2023-11-19T03:44:38;99395.00;;;6.47;nan
52719;BME280;38616;42.140;24.760;2023-11-19T03:47:04;99400.78;;;6.29;nan
52719;BME280;38616;42.140;24.760;2023-11-19T03:49:29;99399.28;;;6.43;nan
52719;BME280;38616;42.140;24.760;2023-11-19T03:51:55;99388.66;;;6.31;nan
52719;BME280;38616;42.140;24.760;2023-11-19T03:54:20;99390.13;;;6.44;nan
52719;BME280;38616;42.140;24.760;2023-11-19T03:56:48;99395.44;;;6.34;nan
52719;BME280;38616;42.140;24.760;2023-11-19T03:59:13;99400.19;;;6.21;nan
52719;BME280;38616;42.140;24.760;2023-11-19T04:01:40;99399.84;;;6.13;nan
52719;BME280;38616;42.140;24.760;2023-11-19T04:04:06;99414.47;;;6.22;nan
52719;BME280;38616;42.140;24.760;2023-11-19T04:06:31;99413.38;;;6.18;nan
52719;BME280;38616;42.140;24.760;2023-11-19T04:08:57;99414.84;;;6.31;nan
52719;BME280;38616;42.140;24.760;2023-11-19T04:11:22;99429.47;;;6.08;nan
52719;BME280;38616;42.140;24.760;2023-11-19T04:13:48;99425.00;;;5.96;nan
52719;BME280;38616;42.140;24.760;2023-11-19T04:16:14;99439.03;;;5.98;nan
52719;BME280;38616;42.140;24.760;2023-11-19T04:18:40;99439.63;;;6.00;nan
52719;BME280;38616;42.140;24.760;2023-11-19T04:21:08;99442.94;;;6.08;nan
52719;BME280;38616;42.140;24.760;2023-11-19T04:23:34;99429.66;;;6.01;nan
52719;BME280;38616;42.140;24.760;2023-11-19T04:26:02;99443.50;;;6.10;nan
52719;BME280;38616;42.140;24.760;2023-11-19T04:28:28;99428.44;;;6.14;nan
52719;BME280;38616;42.140;24.760;2023-11-19T04:30:53;99445.19;;;6.16;nan
52719;BME280;38616;42.140;24.760;2023-11-19T04:33:18;99437.91;;;6.16;nan
52719;BME280;38616;42.140;24.760;2023-11-19T04:35:44;99450.63;;;5.99;nan
52719;BME280;38616;42.140;24.760;2023-11-19T04:38:09;99441.28;;;6.01;nan
52719;BME280;38616;42.140;24.760;2023-11-19T04:40:35;99439.84;;;5.99;nan
52719;BME280;38616;42.140;24.760;2023-11-19T04:43:01;99442.34;;;6.00;nan
52719;BME280;38616;42.140;24.760;2023-11-19T04:45:26;99444.25;;;6.05;nan
52719;BME280;38616;42.140;24.760;2023-11-19T04:47:54;99459.19;;;6.13;nan
52719;BME280;38616;42.140;24.760;2023-11-19T04:50:19;99459.25;;;6.18;nan
52719;BME280;38616;42.140;24.760;2023-11-19T04:52:45;99454.38;;;5.70;nan
52719;BME280;38616;42.140;24.760;2023-11-19T04:55:13;99464.09;;;5.71;nan
52719;BME280;38616;42.140;24.760;2023-11-19T04:57:40;99460.47;;;5.60;nan
52719;BME280;38616;42.140;24.760;2023-11-19T05:00:06;99431.53;;;5.78;nan
52719;BME280;38616;42.140;24.760;2023-11-19T05:02:36;99436.13;;;5.77;nan
52719;BME280;38616;42.140;24.760;2023-11-19T05:05:02;99446.53;;;5.91;nan
52719;BME280;38616;42.140;24.760;2023-11-19T05:07:29;99440.00;;;5.87;nan
52719;BME280;38616;42.140;24.760;2023-11-19T05:09:55;99446.59;;;5.74;nan
52719;BME280;38616;42.140;24.760;2023-11-19T05:12:20;99445.72;;;5.68;nan
52719;BME280;38616;42.140;24.760;2023-11-19T05:14:46;99432.88;;;5.53;nan
52719;BME280;38616;42.140;24.760;2023-11-19T05:17:15;99443.19;;;5.39;nan
52719;BME280;38616;42.140;24.760;2023-11-19T05:19:41;99443.59;;;5.48;nan
52719;BME280;38616;42.140;24.760;2023-11-19T05:22:09;99442.47;;;5.44;nan
52719;BME280;38616;42.140;24.760;2023-11-19T05:24:35;99455.81;;;5.56;nan
52719;BME280;38616;42.140;24.760;2023-11-19T05:27:05;99470.69;;;5.58;nan
52719;BME280;38616;42.140;24.760;2023-11-19T05:29:32;99463.88;;;5.56;nan
52719;BME280;38616;42.140;24.760;2023-11-19T05:31:57;99471.69;;;5.35;nan
52719;BME280;38616;42.140;24.760;2023-11-19T05:34:22;99469.34;;;5.39;nan
52719;BME280;38616;42.140;24.760;2023-11-19T05:36:48;99472.81;;;5.56;nan
52719;BME280;38616;42.140;24.760;2023-11-19T05:39:17;99506.22;;;5.38;nan
52719;BME280;38616;42.140;24.760;2023-11-19T05:41:44;99504.16;;;5.45;nan
52719;BME280;38616;42.140;24.760;2023-11-19T05:44:09;99491.13;;;5.37;nan
52719;BME280;38616;42.140;24.760;2023-11-19T05:46:35;99497.66;;;5.41;nan
52719;BME280;38616;42.140;24.760;2023-11-19T05:49:05;99496.84;;;5.41;nan
52719;BME280;38616;42.140;24.760;2023-11-19T05:51:39;99503.81;;;5.59;nan
52719;BME280;38616;42.140;24.760;2023-11-19T05:54:08;99499.06;;;5.66;nan
52719;BME280;38616;42.140;24.760;2023-11-19T05:56:35;99491.91;;;5.55;nan
52719;BME280;38616;42.140;24.760;2023-11-19T05:59:01;99513.66;;;5.48;nan
52719;BME280;38616;42.140;24.760;2023-11-19T06:01:31;99491.91;;;5.55;nan
52719;BME280;38616;42.140;24.760;2023-11-19T06:03:57;99493.47;;;5.51;nan
52719;BME280;38616;42.140;24.760;2023-11-19T06:06:22;99476.06;;;5.58;nan
52719;BME280;38616;42.140;24.760;2023-11-19T06:08:47;99507.84;;;5.79;nan
52719;BME280;38616;42.140;24.760;2023-11-19T06:11:13;99483.38;;;5.63;nan
52719;BME280;38616;42.140;24.760;2023-11-19T06:13:43;99487.97;;;5.62;nan
52719;BME280;38616;42.140;24.760;2023-11-19T06:16:09;99488.31;;;5.27;nan
52719;BME280;38616;42.140;24.760;2023-11-19T06:18:36;99502.69;;;5.15;nan
52719;BME280;38616;42.140;24.760;2023-11-19T06:21:02;99502.53;;;5.05;nan
52719;BME280;38616;42.140;24.760;2023-11-19T06:23:27;99516.97;;;4.99;nan
52719;BME280;38616;42.140;24.760;2023-11-19T06:25:52;99533.38;;;4.80;nan
52719;BME280;38616;42.140;24.760;2023-11-19T06:28:18;99535.56;;;5.00;nan
52719;BME280;38616;42.140;24.760;2023-11-19T06:30:44;99533.63;;;4.96;nan
52719;BME280;38616;42.140;24.760;2023-11-19T06:33:12;99528.72;;;4.93;nan
52719;BME280;38616;42.140;24.760;2023-11-19T06:35:38;99537.69;;;4.98;nan
52719;BME280;38616;42.140;24.760;2023-11-19T06:38:04;99534.41;;;5.30;nan
52719;BME280;38616;42.140;24.760;2023-11-19T06:40:30;99537.69;;;5.94;nan
52719;BME280;38616;42.140;24.760;2023-11-19T06:42:56;99559.88;;;5.79;nan
52719;BME280;38616;42.140;24.760;2023-11-19T06:45:22;99539.19;;;5.62;nan
52719;BME280;38616;42.140;24.760;2023-11-19T06:47:48;99545.06;;;5.59;nan
52719;BME280;38616;42.140;24.760;2023-11-19T06:50:13;99553.91;;;5.77;nan
52719;BME280;38616;42.140;24.760;2023-11-19T06:52:40;99547.88;;;6.09;nan
52719;BME280;38616;42.140;24.760;2023-11-19T06:55:06;99548.00;;;6.19;nan
52719;BME280;38616;42.140;24.760;2023-11-19T06:57:32;99541.94;;;5.68;nan
52719;BME280;38616;42.140;24.760;2023-11-19T06:59:58;99547.50;;;5.61;nan
52719;BME280;38616;42.140;24.760;2023-11-19T07:02:24;99545.63;;;5.61;nan
52719;BME280;38616;42.140;24.760;2023-11-19T07:04:50;99552.97;;;5.66;nan
52719;BME280;38616;42.140;24.760;2023-11-19T07:07:15;99540.06;;;5.68;nan
52719;BME280;38616;42.140;24.760;2023-11-19T07:09:41;99525.63;;;6.24;nan
52719;BME280;38616;42.140;24.760;2023-11-19T07:12:06;99512.75;;;6.54;nan
52719;BME280;38616;42.140;24.760;2023-11-19T07:14:32;99504.94;;;6.30;nan
52719;BME280;38616;42.140;24.760;2023-11-19T07:16:57;99495.81;;;6.09;nan
52719;BME280;38616;42.140;24.760;2023-11-19T07:19:23;99500.44;;;5.91;nan
52719;BME280;38616;42.140;24.760;2023-11-19T07:21:49;99519.66;;;6.44;nan
52719;BME280;38616;42.140;24.760;2023-11-19T07:24:14;99522.91;;;6.74;nan
52719;BME280;38616;42.140;24.760;2023-11-19T07:26:45;99543.00;;;6.88;nan
52719;BME280;38616;42.140;24.760;2023-11-19T07:29:12;99576.06;;;7.01;nan
52719;BME280;38616;42.140;24.760;2023-11-19T07:31:38;99592.09;;;7.13;nan
52719;BME280;38616;42.140;24.760;2023-11-19T07:34:04;99595.44;;;7.25;nan
52719;BME280;38616;42.140;24.760;2023-11-19T07:36:31;99593.38;;;7.05;nan
52719;BME280;38616;42.140;24.760;2023-11-19T07:38:58;99565.69;;;6.87;nan
52719;BME280;38616;42.140;24.760;2023-11-19T07:41:23;99558.44;;;6.93;nan
52719;BME280;38616;42.140;24.760;2023-11-19T07:43:50;99595.16;;;6.94;nan
52719;BME280;38616;42.140;24.760;2023-11-19T07:46:17;99601.69;;;6.98;nan
52719;BME280;38616;42.140;24.760;2023-11-19T07:48:45;99588.44;;;6.97;nan
52719;BME280;38616;42.140;24.760;2023-11-19T07:51:12;99586.47;;;6.59;nan
52719;BME280;38616;42.140;24.760;2023-11-19T07:53:38;99595.00;;;6.51;nan
52719;BME280;38616;42.140;24.760;2023-11-19T07:56:05;99607.31;;;6.42;nan
52719;BME280;38616;42.140;24.760;2023-11-19T07:58:30;99602.50;;;6.71;nan
52719;BME280;38616;42.140;24.760;2023-11-19T08:00:56;99615.44;;;7.24;nan
52719;BME280;38616;42.140;24.760;2023-11-19T08:03:22;99605.59;;;7.45;nan
52719;BME280;38616;42.140;24.760;2023-11-19T08:05:47;99612.75;;;7.67;nan
52719;BME280;38616;42.140;24.760;2023-11-19T08:08:13;99621.63;;;7.62;nan
52719;BME280;38616;42.140;24.760;2023-11-19T08:10:41;99608.38;;;7.56;nan
52719;BME280;38616;42.140;24.760;2023-11-19T08:13:06;99632.31;;;7.79;nan
52719;BME280;38616;42.140;24.760;2023-11-19T08:15:34;99639.72;;;7.57;nan
52719;BME280;38616;42.140;24.760;2023-11-19T08:18:00;99629.69;;;7.19;nan
52719;BME280;38616;42.140;24.760;2023-11-19T08:20:25;99638.22;;;7.33;nan
52719;BME280;38616;42.140;24.760;2023-11-19T08:22:51;99654.00;;;7.47;nan
52719;BME280;38616;42.140;24.760;2023-11-19T08:25:16;99657.78;;;7.51;nan
52719;BME280;38616;42.140;24.760;2023-11-19T08:27:42;99651.03;;;7.48;nan
52719;BME280;38616;42.140;24.760;2023-11-19T08:30:08;99662.50;;;7.01;nan
52719;BME280;38616;42.140;24.760;2023-11-19T08:32:34;99656.72;;;6.92;nan
52719;BME280;38616;42.140;24.760;2023-11-19T08:35:00;99645.41;;;6.68;nan
52719;BME280;38616;42.140;24.760;2023-11-19T08:37:26;99638.56;;;7.47;nan
52719;BME280;38616;42.140;24.760;2023-11-19T08:39:52;99648.09;;;7.93;nan
52719;BME280;38616;42.140;24.760;2023-11-19T08:42:18;99651.19;;;8.17;nan
52719;BME280;38616;42.140;24.760;2023-11-19T08:44:50;99658.78;;;8.20;nan
52719;BME280;38616;42.140;24.760;2023-11-19T08:47:19;99661.13;;;8.06;nan
52719;BME280;38616;42.140;24.760;2023-11-19T08:49:45;99650.22;;;7.86;nan
52719;BME280;38616;42.140;24.760;2023-11-19T08:52:10;99658.91;;;7.98;nan
52719;BME280;38616;42.140;24.760;2023-11-19T08:54:36;99685.41;;;7.96;nan
52719;BME280;38616;42.140;24.760;2023-11-19T08:57:03;99656.72;;;7.90;nan
52719;BME280;38616;42.140;24.760;2023-11-19T08:59:29;99671.25;;;7.78;nan
52719;BME280;38616;42.140;24.760;2023-11-19T09:01:54;99681.13;;;7.62;nan
52719;BME280;38616;42.140;24.760;2023-11-19T09:04:20;99669.44;;;7.51;nan
52719;BME280;38616;42.140;24.760;2023-11-19T09:06:48;99669.06;;;7.10;nan
52719;BME280;38616;42.140;24.760;2023-11-19T09:09:13;99641.69;;;6.74;nan
52719;BME280;38616;42.140;24.760;2023-11-19T09:11:39;99646.13;;;6.58;nan
52719;BME280;38616;42.140;24.760;2023-11-19T09:14:05;99665.59;;;7.15;nan
52719;BME280;38616;42.140;24.760;2023-11-19T09:16:30;99629.03;;;7.34;nan
52719;BME280;38616;42.140;24.760;2023-11-19T09:18:55;99633.75;;;7.54;nan
52719;BME280;38616;42.140;24.760;2023-11-19T09:21:21;99617.44;;;7.39;nan
52719;BME280;38616;42.140;24.760;2023-11-19T09:23:47;99612.03;;;7.39;nan
52719;BME280;38616;42.140;24.760;2023-11-19T09:26:14;99633.03;;;7.32;nan
52719;BME280;38616;42.140;24.760;2023-11-19T09:28:39;99629.66;;;7.47;nan
52719;BME280;38616;42.140;24.760;2023-11-19T09:31:18;99649.97;;;7.92;nan
52719;BME280;38616;42.140;24.760;2023-11-19T09:33:44;99654.19;;;7.78;nan
52719;BME280;38616;42.140;24.760;2023-11-19T09:36:12;99658.34;;;7.96;nan
52719;BME280;38616;42.140;24.760;2023-11-19T09:38:39;99641.13;;;8.12;nan
52719;BME280;38616;42.140;24.760;2023-11-19T09:41:05;99646.66;;;8.33;nan
52719;BME280;38616;42.140;24.760;2023-11-19T09:43:35;99646.63;;;7.80;nan
52719;BME280;38616;42.140;24.760;2023-11-19T09:46:08;99661.19;;;7.36;nan
52719;BME280;38616;42.140;24.760;2023-11-19T09:48:36;99651.78;;;6.84;nan
52719;BME280;38616;42.140;24.760;2023-11-19T09:51:07;99654.59;;;7.59;nan
52719;BME280;38616;42.140;24.760;2023-11-19T09:53:34;99636.59;;;7.70;nan
52719;BME280;38616;42.140;24.760;2023-11-19T09:56:01;99619.34;;;7.81;nan
52719;BME280;38616;42.140;24.760;2023-11-19T09:58:32;99664.31;;;7.98;nan
52719;BME280;38616;42.140;24.760;2023-11-19T10:00:58;99648.78;;;7.78;nan
52719;BME280;38616;42.140;24.760;2023-11-19T10:03:34;99639.25;;;7.65;nan
52719;BME280;38616;42.140;24.760;2023-11-19T10:06:06;99677.25;;;7.86;nan
52719;BME280;38616;42.140;24.760;2023-11-19T10:08:32;99658.03;;;7.87;nan
52719;BME280;38616;42.140;24.760;2023-11-19T10:10:57;99646.22;;;7.98;nan
52719;BME280;38616;42.140;24.760;2023-11-19T10:13:28;99661.44;;;8.10;nan
52719;BME280;38616;42.140;24.760;2023-11-19T10:15:55;99633.09;;;8.28;nan
52719;BME280;38616;42.140;24.760;2023-11-19T10:18:25;99631.88;;;8.03;nan
52719;BME280;38616;42.140;24.760;2023-11-19T10:20:51;99619.88;;;7.41;nan
52719;BME280;38616;42.140;24.760;2023-11-19T10:23:16;99621.06;;;7.22;nan
52719;BME280;38616;42.140;24.760;2023-11-19T10:25:42;99630.75;;;7.18;nan
52719;BME280;38616;42.140;24.760;2023-11-19T10:28:07;99613.16;;;7.86;nan
52719;BME280;38616;42.140;24.760;2023-11-19T10:30:33;99622.75;;;8.14;nan
52719;BME280;38616;42.140;24.760;2023-11-19T10:33:06;99609.53;;;8.18;nan
52719;BME280;38616;42.140;24.760;2023-11-19T10:35:33;99603.38;;;8.43;nan
52719;BME280;38616;42.140;24.760;2023-11-19T10:38:15;99604.44;;;8.37;nan
52719;BME280;38616;42.140;24.760;2023-11-19T10:40:41;99594.03;;;8.08;nan
52719;BME280;38616;42.140;24.760;2023-11-19T10:43:06;99592.25;;;8.30;nan
52719;BME280;38616;42.140;24.760;2023-11-19T10:45:36;99602.47;;;8.17;nan
52719;BME280;38616;42.140;24.760;2023-11-19T10:48:03;99589.78;;;8.28;nan
52719;BME280;38616;42.140;24.760;2023-11-19T10:50:33;99588.31;;;8.63;nan
52719;BME280;38616;42.140;24.760;2023-11-19T10:52:59;99585.63;;;8.79;nan
52719;BME280;38616;42.140;24.760;2023-11-19T10:55:30;99588.59;;;8.72;nan
52719;BME280;38616;42.140;24.760;2023-11-19T10:58:09;99591.34;;;8.08;nan
52719;BME280;38616;42.140;24.760;2023-11-19T11:00:44;99591.03;;;7.51;nan
52719;BME280;38616;42.140;24.760;2023-11-19T11:03:24;99593.22;;;8.03;nan
52719;BME280;38616;42.140;24.760;2023-11-19T11:05:52;99577.66;;;8.36;nan
52719;BME280;38616;42.140;24.760;2023-11-19T11:08:19;99581.41;;;8.24;nan
52719;BME280;38616;42.140;24.760;2023-11-19T11:10:55;99615.50;;;8.25;nan
52719;BME280;38616;42.140;24.760;2023-11-19T11:13:24;99585.47;;;8.27;nan
52719;BME280;38616;42.140;24.760;2023-11-19T11:15:51;99603.88;;;8.30;nan
52719;BME280;38616;42.140;24.760;2023-11-19T11:18:17;99594.69;;;8.36;nan
52719;BME280;38616;42.140;24.760;2023-11-19T11:20:46;99585.53;;;8.48;nan
52719;BME280;38616;42.140;24.760;2023-11-19T11:28:59;99565.25;;;8.50;nan
52719;BME280;38616;42.140;24.760;2023-11-19T11:36:27;99558.81;;;7.07;nan
52719;BME280;38616;42.140;24.760;2023-11-19T11:38:53;99533.94;;;8.01;nan
52719;BME280;38616;42.140;24.760;2023-11-19T11:41:24;99536.81;;;8.48;nan
52719;BME280;38616;42.140;24.760;2023-11-19T11:43:54;99523.03;;;8.60;nan
52719;BME280;38616;42.140;24.760;2023-11-19T11:57:01;99492.44;;;8.85;nan
52719;BME280;38616;42.140;24.760;2023-11-19T11:59:52;99506.25;;;8.99;nan
52719;BME280;38616;42.140;24.760;2023-11-19T12:02:24;99484.28;;;9.16;nan
52719;BME280;38616;42.140;24.760;2023-11-19T12:04:51;99504.34;;;8.89;nan
52719;BME280;38616;42.140;24.760;2023-11-19T12:07:19;99515.19;;;8.94;nan
52719;BME280;38616;42.140;24.760;2023-11-19T12:10:04;99489.94;;;8.42;nan
52719;BME280;38616;42.140;24.760;2023-11-19T12:12:30;99484.81;;;8.46;nan
52719;BME280;38616;42.140;24.760;2023-11-19T12:17:46;99502.00;;;7.34;nan
52719;BME280;38616;42.140;24.760;2023-11-19T12:20:14;99502.31;;;8.07;nan
52719;BME280;38616;42.140;24.760;2023-11-19T12:22:42;99519.25;;;8.61;nan
52719;BME280;38616;42.140;24.760;2023-11-19T12:25:10;99486.75;;;8.71;nan
52719;BME280;38616;42.140;24.760;2023-11-19T12:27:39;99495.16;;;8.85;nan
52719;BME280;38616;42.140;24.760;2023-11-19T12:30:05;99480.25;;;8.87;nan
52719;BME280;38616;42.140;24.760;2023-11-19T12:32:44;99498.41;;;8.77;nan
52719;BME280;38616;42.140;24.760;2023-11-19T12:35:11;99466.44;;;8.84;nan
52719;BME280;38616;42.140;24.760;2023-11-19T12:37:48;99471.84;;;9.05;nan
52719;BME280;38616;42.140;24.760;2023-11-19T12:40:20;99472.38;;;8.91;nan
52719;BME280;38616;42.140;24.760;2023-11-19T12:42:46;99461.03;;;8.79;nan
52719;BME280;38616;42.140;24.760;2023-11-19T12:45:12;99478.91;;;8.80;nan
52719;BME280;38616;42.140;24.760;2023-11-19T12:47:44;99465.63;;;8.94;nan
52719;BME280;38616;42.140;24.760;2023-11-19T12:50:12;99492.69;;;8.57;nan
52719;BME280;38616;42.140;24.760;2023-11-19T12:52:38;99480.97;;;8.16;nan
52719;BME280;38616;42.140;24.760;2023-11-19T12:55:24;99458.81;;;8.34;nan
52719;BME280;38616;42.140;24.760;2023-11-19T12:57:51;99472.97;;;8.83;nan
52719;BME280;38616;42.140;24.760;2023-11-19T13:00:21;99468.31;;;9.14;nan
52719;BME280;38616;42.140;24.760;2023-11-19T13:02:51;99481.56;;;9.21;nan
52719;BME280;38616;42.140;24.760;2023-11-19T13:05:28;99471.28;;;9.18;nan
52719;BME280;38616;42.140;24.760;2023-11-19T13:10:28;99476.72;;;8.92;nan
52719;BME280;38616;42.140;24.760;2023-11-19T13:13:03;99481.06;;;8.88;nan
52719;BME280;38616;42.140;24.760;2023-11-19T13:15:29;99459.09;;;9.10;nan
52719;BME280;38616;42.140;24.760;2023-11-19T13:17:55;99425.19;;;9.28;nan
52719;BME280;38616;42.140;24.760;2023-11-19T13:20:20;99438.69;;;9.44;nan
52719;BME280;38616;42.140;24.760;2023-11-19T13:23:05;99442.22;;;9.39;nan
52719;BME280;38616;42.140;24.760;2023-11-19T13:25:32;99449.63;;;8.97;nan
52719;BME280;38616;42.140;24.760;2023-11-19T13:27:58;99446.91;;;8.35;nan
52719;BME280;38616;42.140;24.760;2023-11-19T13:30:24;99444.16;;;8.20;nan
52719;BME280;38616;42.140;24.760;2023-11-19T13:32:53;99439.38;;;8.58;nan
52719;BME280;38616;42.140;24.760;2023-11-19T13:35:24;99444.50;;;8.85;nan
52719;BME280;38616;42.140;24.760;2023-11-19T13:37:50;99443.94;;;8.99;nan
52719;BME280;38616;42.140;24.760;2023-11-19T13:40:16;99449.63;;;8.87;nan
52719;BME280;38616;42.140;24.760;2023-11-19T13:42:44;99430.13;;;8.85;nan
52719;BME280;38616;42.140;24.760;2023-11-19T13:45:11;99426.09;;;8.82;nan
52719;BME280;38616;42.140;24.760;2023-11-19T13:47:45;99431.50;;;8.77;nan
52719;BME280;38616;42.140;24.760;2023-11-19T13:50:12;99424.19;;;8.83;nan